Time;durP1;ratioP1;P1;durP2;ratioP2;P2;SDS_P1;SDS_P2;PMS_P1;PMS_P2;Temp;Humidity;BMP_temperature;BMP_pressure;BME280_temperature;BME280_humidity;BME280_pressure;Samples;Min_cycle;Max_cycle;Signal;HPM_P1;HPM_P2
2023/08/31 00:01:39;;;;;;;6.93;3.07;;;14.10;99.90;;;;;;7289619;19;20185;-78
2023/08/31 00:04:10;;;;;;;8.63;3.17;;;14.20;99.90;;;;;;7300412;19;20189;-77
2023/08/31 00:06:36;;;;;;;6.50;3.17;;;14.30;99.90;;;;;;7291757;19;20189;-77
2023/08/31 00:09:05;;;;;;;9.93;3.63;;;14.40;99.90;;;;;;7309154;19;20688;-79
2023/08/31 00:11:31;;;;;;;7.03;3.30;;;14.40;99.90;;;;;;7289682;19;20190;-78
2023/08/31 00:13:57;;;;;;;7.30;3.40;;;14.40;99.90;;;;;;7288552;19;20192;-79
2023/08/31 00:16:26;;;;;;;6.67;3.30;;;14.40;99.90;;;;;;7287292;19;20184;-78
2023/08/31 00:18:52;;;;;;;7.07;3.57;;;14.50;99.90;;;;;;7288725;19;20653;-79
2023/08/31 00:21:18;;;;;;;8.70;3.20;;;14.60;99.90;;;;;;7288258;19;20202;-78
2023/08/31 00:23:44;;;;;;;6.77;3.40;;;14.60;99.90;;;;;;7288072;19;20186;-78
2023/08/31 00:26:10;;;;;;;8.10;3.20;;;14.60;99.90;;;;;;7289591;19;20263;-78
2023/08/31 00:28:36;;;;;;;7.33;3.23;;;14.70;99.90;;;;;;7293890;19;20203;-77
2023/08/31 00:31:05;;;;;;;7.13;3.60;;;14.80;99.90;;;;;;7308600;19;20188;-78
2023/08/31 00:33:33;;;;;;;9.13;3.63;;;14.90;99.90;;;;;;7287828;19;20280;-79
2023/08/31 00:36:03;;;;;;;8.17;3.33;;;14.90;99.90;;;;;;7286413;19;20190;-79
2023/08/31 00:38:30;;;;;;;7.93;3.70;;;14.90;99.90;;;;;;7286835;19;20186;-78
2023/08/31 00:40:55;;;;;;;7.80;3.60;;;14.90;99.90;;;;;;7287779;19;20187;-79
2023/08/31 00:43:21;;;;;;;8.47;3.60;;;14.90;99.90;;;;;;7286386;19;20193;-78
2023/08/31 00:45:49;;;;;;;10.97;3.53;;;15.00;99.90;;;;;;7285936;19;20211;-79
2023/08/31 00:48:20;;;;;;;9.13;3.00;;;15.00;99.90;;;;;;7286221;19;20502;-78
2023/08/31 00:50:46;;;;;;;9.13;3.47;;;15.10;99.90;;;;;;7286741;19;20191;-77
2023/08/31 00:53:13;;;;;;;7.77;3.27;;;15.10;99.90;;;;;;7286870;19;20677;-77
2023/08/31 00:55:40;;;;;;;9.87;3.50;;;15.20;99.90;;;;;;7285892;19;20990;-77
2023/08/31 00:58:07;;;;;;;8.20;3.40;;;15.20;99.90;;;;;;7296589;19;20186;-76
2023/08/31 01:00:56;;;;;;;8.00;3.53;;;15.20;99.90;;;;;;7308822;19;20186;-77
2023/08/31 01:03:33;;;;;;;10.83;3.27;;;15.10;99.90;;;;;;7184475;19;2004568;-78
2023/08/31 01:06:15;;;;;;;9.57;3.20;;;15.20;99.90;;;;;;7286238;19;20278;-78
2023/08/31 01:08:46;;;;;;;8.30;3.07;;;15.10;99.90;;;;;;7182816;19;2004859;-79
2023/08/31 01:11:33;;;;;;;12.40;3.63;;;15.00;99.90;;;;;;7284403;19;20252;-77
2023/08/31 01:14:08;;;;;;;8.03;2.83;;;15.00;99.90;;;;;;7282217;19;20212;-79
2023/08/31 01:16:35;;;;;;;8.03;3.23;;;15.10;99.90;;;;;;7283578;19;20178;-78
2023/08/31 01:19:05;;;;;;;6.20;3.10;;;15.10;99.90;;;;;;7283807;19;20182;-78
2023/08/31 01:21:37;;;;;;;10.57;3.70;;;15.10;99.90;;;;;;7285702;19;20208;-78
2023/08/31 01:24:05;;;;;;;9.43;3.10;;;15.00;99.90;;;;;;7282763;19;20185;-78
2023/08/31 01:26:32;;;;;;;8.63;3.20;;;15.00;99.90;;;;;;7281678;19;20178;-78
2023/08/31 01:28:59;;;;;;;7.57;3.37;;;14.90;99.90;;;;;;7283545;19;20243;-78
2023/08/31 01:31:25;;;;;;;8.47;3.13;;;14.90;99.90;;;;;;7284246;19;21805;-78
2023/08/31 01:33:51;;;;;;;7.13;3.07;;;14.90;99.90;;;;;;7281761;19;20203;-78
2023/08/31 01:36:32;;;;;;;9.20;3.17;;;14.90;99.90;;;;;;7281086;19;20183;-78
2023/08/31 01:39:15;;;;;;;6.53;3.13;;;14.90;99.90;;;;;;7282716;19;20199;-77
2023/08/31 01:41:46;;;;;;;8.27;3.23;;;14.90;99.90;;;;;;7179821;19;2004522;-78
2023/08/31 01:44:16;;;;;;;9.83;3.50;;;14.80;99.90;;;;;;7281245;19;20198;-77
2023/08/31 01:46:46;;;;;;;7.47;3.37;;;14.80;99.90;;;;;;7283490;19;20198;-77
2023/08/31 01:49:12;;;;;;;9.20;3.53;;;14.80;99.90;;;;;;7282836;19;20227;-78
2023/08/31 01:51:38;;;;;;;10.03;3.90;;;14.70;99.90;;;;;;7283521;19;20200;-77
2023/08/31 01:54:06;;;;;;;10.37;3.80;;;14.60;99.90;;;;;;7295444;19;20197;-77
2023/08/31 01:56:32;;;;;;;11.23;4.10;;;14.60;99.90;;;;;;7305142;19;20192;-78
2023/08/31 01:58:58;;;;;;;9.50;3.97;;;14.60;99.90;;;;;;7283702;19;20185;-78
2023/08/31 02:01:24;;;;;;;11.20;3.97;;;14.60;99.90;;;;;;7283411;19;20190;-78
2023/08/31 02:03:50;;;;;;;8.37;4.13;;;14.60;99.90;;;;;;7281662;19;20204;-78
2023/08/31 02:06:15;;;;;;;11.93;3.80;;;14.60;99.90;;;;;;7283190;19;20192;-79
2023/08/31 02:08:44;;;;;;;11.67;3.93;;;14.60;99.90;;;;;;7282228;19;20188;-78
2023/08/31 02:11:09;;;;;;;11.67;4.37;;;14.60;99.90;;;;;;7282937;19;20184;-77
2023/08/31 02:13:35;;;;;;;10.77;4.17;;;14.60;99.90;;;;;;7298761;19;20241;-77
2023/08/31 02:16:01;;;;;;;12.17;4.40;;;14.70;99.90;;;;;;7296479;19;20206;-78
2023/08/31 02:18:26;;;;;;;13.43;4.37;;;14.70;99.90;;;;;;7282938;19;20196;-78
2023/08/31 02:20:53;;;;;;;12.27;4.40;;;14.80;99.90;;;;;;7284172;19;20181;-77
2023/08/31 02:23:20;;;;;;;11.83;4.30;;;14.90;99.90;;;;;;7284019;19;20538;-78
2023/08/31 02:25:46;;;;;;;11.50;4.23;;;15.00;99.90;;;;;;7283212;19;20556;-78
2023/08/31 02:28:11;;;;;;;9.70;3.97;;;15.00;99.90;;;;;;7281670;19;20201;-77
2023/08/31 02:30:37;;;;;;;10.80;3.80;;;14.90;99.90;;;;;;7281049;19;20248;-78
2023/08/31 02:33:05;;;;;;;10.53;3.90;;;14.90;99.90;;;;;;7303618;19;20235;-77
2023/08/31 02:35:31;;;;;;;10.70;4.00;;;14.90;99.90;;;;;;7294305;19;20190;-78
2023/08/31 02:37:56;;;;;;;8.83;3.63;;;15.00;99.90;;;;;;7282291;19;20202;-78
2023/08/31 02:40:22;;;;;;;13.53;3.93;;;14.90;99.90;;;;;;7282308;19;20521;-77
2023/08/31 02:42:52;;;;;;;8.83;3.53;;;14.90;99.90;;;;;;7281604;19;20278;-78
2023/08/31 02:45:18;;;;;;;10.50;3.57;;;14.90;99.90;;;;;;7282289;19;20253;-77
2023/08/31 02:47:43;;;;;;;11.00;3.90;;;14.90;99.90;;;;;;7281832;19;20201;-78
2023/08/31 02:50:10;;;;;;;8.37;3.37;;;14.90;99.90;;;;;;7281723;19;20194;-77
2023/08/31 02:52:35;;;;;;;7.60;3.23;;;14.90;99.90;;;;;;7296048;19;20200;-77
2023/08/31 02:55:02;;;;;;;8.93;3.40;;;14.80;99.90;;;;;;7295705;19;20661;-79
2023/08/31 02:57:27;;;;;;;7.93;3.30;;;14.80;99.90;;;;;;7279162;19;20201;-78
2023/08/31 02:59:53;;;;;;;7.83;3.07;;;14.80;99.90;;;;;;7283523;19;20195;-78
2023/08/31 03:02:19;;;;;;;8.47;3.17;;;14.70;99.90;;;;;;7282654;19;20196;-78
2023/08/31 03:04:45;;;;;;;9.97;3.63;;;14.60;99.90;;;;;;7280377;19;20217;-78
2023/08/31 03:07:13;;;;;;;8.40;3.40;;;14.50;99.90;;;;;;7280004;19;20198;-78
2023/08/31 03:09:39;;;;;;;9.23;3.63;;;14.50;99.90;;;;;;7282042;19;20644;-78
2023/08/31 03:12:05;;;;;;;7.73;3.37;;;14.50;99.90;;;;;;7297976;19;20205;-78
2023/08/31 03:14:32;;;;;;;7.60;3.80;;;14.40;99.90;;;;;;7298789;19;20657;-78
2023/08/31 03:16:58;;;;;;;9.97;3.77;;;14.40;99.90;;;;;;7281474;19;20189;-78
2023/08/31 03:19:24;;;;;;;8.93;3.47;;;14.40;99.90;;;;;;7281292;19;20189;-78
2023/08/31 03:21:50;;;;;;;9.07;3.67;;;14.50;99.90;;;;;;7281882;19;20251;-77
2023/08/31 03:24:16;;;;;;;10.03;3.70;;;14.60;99.90;;;;;;7282212;19;20188;-77
2023/08/31 03:26:42;;;;;;;9.47;3.47;;;14.60;99.90;;;;;;7282153;19;20608;-78
2023/08/31 03:29:08;;;;;;;8.33;3.67;;;14.50;99.90;;;;;;7281653;19;20629;-77
2023/08/31 03:31:34;;;;;;;9.60;3.50;;;14.50;99.90;;;;;;7303215;19;20207;-79
2023/08/31 03:33:59;;;;;;;8.47;3.60;;;14.50;99.90;;;;;;7282996;19;20661;-78
2023/08/31 03:36:25;;;;;;;8.53;3.60;;;14.50;99.90;;;;;;7280892;19;20729;-78
2023/08/31 03:38:51;;;;;;;10.53;3.47;;;14.50;99.90;;;;;;7282559;19;20193;-77
2023/08/31 03:41:16;;;;;;;8.13;3.20;;;14.50;99.90;;;;;;7282965;19;20190;-77
2023/08/31 03:43:42;;;;;;;10.30;3.60;;;14.40;99.90;;;;;;7281695;19;20552;-77
2023/08/31 03:46:08;;;;;;;8.17;3.20;;;14.30;99.90;;;;;;7282601;19;21231;-78
2023/08/31 03:48:34;;;;;;;9.50;3.53;;;14.30;99.90;;;;;;7302549;19;20200;-78
2023/08/31 03:50:59;;;;;;;12.47;3.80;;;14.30;99.90;;;;;;7281613;19;20192;-78
2023/08/31 03:53:25;;;;;;;10.27;3.67;;;14.30;99.90;;;;;;7280540;19;20227;-78
2023/08/31 03:55:55;;;;;;;8.70;3.40;;;14.20;99.90;;;;;;7280879;19;20208;-78
2023/08/31 03:58:23;;;;;;;12.23;3.67;;;14.20;99.90;;;;;;7281110;19;20192;-78
2023/08/31 04:00:51;;;;;;;9.90;3.47;;;14.10;99.90;;;;;;7282110;19;20199;-78
2023/08/31 04:03:18;;;;;;;9.60;3.53;;;14.00;99.90;;;;;;7280469;19;20185;-78
2023/08/31 04:05:44;;;;;;;10.80;3.33;;;14.00;99.90;;;;;;7281782;19;20195;-78
2023/08/31 04:08:12;;;;;;;13.03;3.53;;;13.90;99.90;;;;;;7280836;19;20188;-78
2023/08/31 04:10:38;;;;;;;8.33;3.20;;;14.00;99.90;;;;;;7279375;19;20189;-76
2023/08/31 04:13:04;;;;;;;10.67;3.90;;;13.90;99.90;;;;;;7304178;19;20302;-78
2023/08/31 04:15:30;;;;;;;11.57;4.03;;;13.90;99.90;;;;;;7281157;19;20192;-78
2023/08/31 04:17:56;;;;;;;8.10;3.43;;;13.90;99.90;;;;;;7286373;19;20206;-77
2023/08/31 04:20:22;;;;;;;9.20;3.60;;;13.90;99.90;;;;;;7288645;19;20188;-77
2023/08/31 04:22:48;;;;;;;8.93;3.57;;;13.80;99.90;;;;;;7287993;19;20281;-78
2023/08/31 04:25:14;;;;;;;8.73;3.63;;;13.80;99.90;;;;;;7287727;19;20688;-78
2023/08/31 04:27:40;;;;;;;8.67;3.50;;;13.80;99.90;;;;;;7287986;19;20185;-78
2023/08/31 04:30:07;;;;;;;8.83;3.60;;;13.80;99.90;;;;;;7304362;19;20250;-78
2023/08/31 04:32:33;;;;;;;9.30;3.97;;;13.80;99.90;;;;;;7311083;19;20599;-78
2023/08/31 04:34:58;;;;;;;11.13;3.80;;;13.80;99.90;;;;;;7287698;19;20193;-78
2023/08/31 04:37:24;;;;;;;9.30;3.70;;;13.80;99.90;;;;;;7285388;19;20688;-78
2023/08/31 04:39:50;;;;;;;10.90;4.03;;;13.90;99.90;;;;;;7287239;19;20192;-78
2023/08/31 04:42:18;;;;;;;9.43;4.03;;;13.80;99.90;;;;;;7287277;19;20207;-78
2023/08/31 04:44:44;;;;;;;10.37;4.37;;;13.80;99.90;;;;;;7286614;19;20708;-78
2023/08/31 04:47:11;;;;;;;13.13;4.37;;;13.90;99.90;;;;;;7287434;19;20192;-78
2023/08/31 04:49:36;;;;;;;11.27;4.60;;;13.90;99.90;;;;;;7296295;19;20189;-78
2023/08/31 04:52:02;;;;;;;12.23;4.77;;;13.90;99.90;;;;;;7305837;19;20181;-79
2023/08/31 04:54:28;;;;;;;12.03;4.53;;;13.90;99.90;;;;;;7287885;19;20192;-78
2023/08/31 04:56:54;;;;;;;9.93;4.33;;;13.90;99.90;;;;;;7286749;19;20216;-78
2023/08/31 04:59:19;;;;;;;13.67;4.87;;;13.90;99.90;;;;;;7287357;19;20185;-78
2023/08/31 05:01:45;;;;;;;11.93;4.50;;;13.90;99.90;;;;;;7287743;19;20192;-78
2023/08/31 05:04:11;;;;;;;9.77;4.33;;;14.00;99.90;;;;;;7284860;19;20655;-78
2023/08/31 05:06:36;;;;;;;11.93;4.50;;;13.90;99.90;;;;;;7294940;19;20195;-78
2023/08/31 05:09:02;;;;;;;12.40;4.30;;;13.80;99.90;;;;;;7306066;19;20206;-79
2023/08/31 05:11:28;;;;;;;12.07;4.57;;;13.80;99.90;;;;;;7285222;19;20195;-80
2023/08/31 05:13:54;;;;;;;12.77;4.37;;;13.90;99.90;;;;;;7282864;19;20211;-79
2023/08/31 05:16:20;;;;;;;13.43;4.50;;;14.00;99.90;;;;;;7286397;19;20199;-79
2023/08/31 05:18:49;;;;;;;10.63;4.27;;;14.00;99.90;;;;;;7286984;19;20191;-79
2023/08/31 05:21:14;;;;;;;13.60;4.23;;;14.10;99.90;;;;;;7285999;19;20211;-77
2023/08/31 05:23:40;;;;;;;12.13;4.30;;;14.20;99.90;;;;;;7284596;19;20579;-77
2023/08/31 05:26:06;;;;;;;17.03;4.87;;;14.30;99.90;;;;;;7298826;19;20282;-78
2023/08/31 05:28:32;;;;;;;11.93;4.43;;;14.30;99.90;;;;;;7299673;19;20646;-78
2023/08/31 05:31:00;;;;;;;13.53;4.23;;;14.40;99.90;;;;;;7282938;19;20297;-79
2023/08/31 05:33:27;;;;;;;15.93;4.07;;;14.40;99.90;;;;;;7284580;19;20198;-79
2023/08/31 05:35:53;;;;;;;12.47;4.40;;;14.50;99.90;;;;;;7283413;19;20660;-78
2023/08/31 05:38:18;;;;;;;14.30;4.47;;;14.80;99.90;;;;;;7282386;19;20260;-77
2023/08/31 05:40:46;;;;;;;11.50;3.63;;;15.30;99.90;;;;;;7284260;19;20226;-78
2023/08/31 05:43:13;;;;;;;13.70;3.77;;;15.60;99.90;;;;;;7282672;19;22042;-77
2023/08/31 05:45:39;;;;;;;11.30;3.43;;;15.90;99.90;;;;;;7283092;19;20196;-77
2023/08/31 05:48:05;;;;;;;14.20;2.87;;;16.00;99.90;;;;;;7303631;19;20656;-77
2023/08/31 05:50:31;;;;;;;13.20;3.20;;;16.40;99.90;;;;;;7282423;19;20185;-77
2023/08/31 05:52:58;;;;;;;12.53;3.13;;;16.60;99.90;;;;;;7276662;19;20189;-74
2023/08/31 05:55:24;;;;;;;8.97;2.83;;;16.80;99.90;;;;;;7283487;19;20719;-77
2023/08/31 05:57:50;;;;;;;11.97;3.13;;;17.00;99.90;;;;;;7281369;19;20250;-77
2023/08/31 06:00:17;;;;;;;10.27;3.00;;;17.20;99.90;;;;;;7283075;19;20215;-77
2023/08/31 06:02:46;;;;;;;9.47;2.70;;;17.60;99.90;;;;;;7280917;19;20188;-76
2023/08/31 06:05:12;;;;;;;12.40;2.70;;;17.90;99.90;;;;;;7282956;19;20204;-77
2023/08/31 06:07:39;;;;;;;13.20;2.77;;;18.20;99.90;;;;;;7281917;19;20189;-78
2023/08/31 06:10:05;;;;;;;13.27;2.93;;;18.40;99.90;;;;;;7304110;19;20216;-77
2023/08/31 06:12:32;;;;;;;10.90;2.37;;;18.70;99.90;;;;;;7279956;19;20703;-77
2023/08/31 06:14:59;;;;;;;10.27;2.50;;;19.00;99.90;;;;;;7282782;19;20180;-78
2023/08/31 06:17:24;;;;;;;12.27;3.03;;;19.20;99.90;;;;;;7280204;19;20218;-77
2023/08/31 06:19:50;;;;;;;10.57;2.40;;;19.50;99.90;;;;;;7283281;19;20189;-77
2023/08/31 06:22:16;;;;;;;10.87;2.50;;;19.60;99.90;;;;;;7282146;19;20702;-77
2023/08/31 06:24:42;;;;;;;12.17;2.50;;;19.90;99.90;;;;;;7283597;19;20205;-77
2023/08/31 06:27:08;;;;;;;9.17;2.37;;;20.50;99.90;;;;;;7281845;19;20214;-77
2023/08/31 06:29:33;;;;;;;11.07;2.50;;;21.00;99.90;;;;;;7302241;19;20181;-77
2023/08/31 06:31:59;;;;;;;12.23;2.53;;;21.20;99.90;;;;;;7280812;19;20186;-77
2023/08/31 06:34:25;;;;;;;15.00;3.00;;;21.50;99.90;;;;;;7282713;19;20223;-78
2023/08/31 06:36:51;;;;;;;8.10;2.60;;;21.50;99.90;;;;;;7283218;19;20186;-78
2023/08/31 06:39:16;;;;;;;11.50;2.67;;;21.20;99.90;;;;;;7280056;19;20216;-79
2023/08/31 06:41:42;;;;;;;10.47;3.07;;;20.80;99.90;;;;;;7283028;19;20177;-80
2023/08/31 06:44:08;;;;;;;11.37;2.80;;;20.80;99.90;;;;;;7282781;19;20189;-79
2023/08/31 06:46:37;;;;;;;10.80;2.43;;;21.50;99.90;;;;;;7305522;19;20651;-77
2023/08/31 06:49:10;;;;;;;10.73;2.63;;;22.10;99.90;;;;;;7281343;19;20281;-78
2023/08/31 06:51:37;;;;;;;11.20;2.60;;;22.10;99.90;;;;;;7282798;19;20666;-79
2023/08/31 06:54:06;;;;;;;18.10;2.90;;;22.10;99.90;;;;;;7283716;19;20218;-78
2023/08/31 06:56:35;;;;;;;11.67;3.00;;;22.30;99.90;;;;;;7281598;19;20304;-77
2023/08/31 06:59:02;;;;;;;13.77;3.17;;;22.20;99.90;;;;;;7282549;19;20187;-78
2023/08/31 07:01:29;;;;;;;13.33;2.70;;;21.60;99.90;;;;;;7281920;19;20185;-78
2023/08/31 07:03:55;;;;;;;9.37;2.87;;;21.50;99.90;;;;;;7280017;19;20553;-78
2023/08/31 07:06:21;;;;;;;13.70;2.77;;;22.30;99.90;;;;;;7282030;19;20200;-77
2023/08/31 07:08:50;;;;;;;9.07;2.63;;;23.10;99.90;;;;;;7281799;19;20658;-77
2023/08/31 07:11:17;;;;;;;15.10;3.17;;;24.10;99.90;;;;;;7279707;19;20288;-78
2023/08/31 07:13:43;;;;;;;10.13;2.63;;;24.20;99.90;;;;;;7279717;19;20256;-78
2023/08/31 07:16:09;;;;;;;9.13;2.70;;;24.10;99.90;;;;;;7279106;19;20664;-76
2023/08/31 07:18:36;;;;;;;12.70;2.40;;;24.80;99.90;;;;;;7300153;19;20192;-78
2023/08/31 07:21:04;;;;;;;15.03;2.77;;;25.10;99.90;;;;;;7280531;19;20292;-77
2023/08/31 07:23:30;;;;;;;10.47;2.50;;;24.60;99.90;;;;;;7279791;19;20187;-77
2023/08/31 07:26:00;;;;;;;11.80;2.73;;;25.30;99.90;;;;;;7278796;19;20265;-77
2023/08/31 07:28:26;;;;;;;10.57;2.47;;;25.60;99.90;;;;;;7278120;19;20193;-76
2023/08/31 07:31:03;;;;;;;9.40;2.73;;;26.20;99.90;;;;;;7277810;19;20189;-77
2023/08/31 07:33:31;;;;;;;12.90;2.80;;;25.60;99.90;;;;;;7279762;19;20211;-76
2023/08/31 07:35:57;;;;;;;10.60;2.70;;;25.10;99.90;;;;;;7278490;19;20196;-76
2023/08/31 07:38:23;;;;;;;10.10;2.63;;;25.70;99.90;;;;;;7277492;19;20185;-75
2023/08/31 07:40:49;;;;;;;13.02;3.30;;;27.00;99.90;;;;;;7277506;19;20230;-77
2023/08/31 07:43:14;;;;;;;11.52;2.70;;;28.70;99.90;;;;;;7280020;19;20576;-76
2023/08/31 07:45:40;;;;;;;9.70;2.45;;;29.20;99.90;;;;;;7280455;19;20196;-78
2023/08/31 07:48:07;;;;;;;7.43;2.40;;;29.30;99.90;;;;;;7303390;19;20541;-79
2023/08/31 07:50:34;;;;;;;8.27;2.50;;;28.70;99.90;;;;;;7305633;19;20648;-78
2023/08/31 07:53:00;;;;;;;9.23;2.45;;;29.70;99.90;;;;;;7287151;19;20509;-78
2023/08/31 07:55:25;;;;;;;9.27;2.20;;;29.70;99.90;;;;;;7287569;19;20197;-78
2023/08/31 07:57:51;;;;;;;11.27;2.65;;;28.60;99.90;;;;;;7287321;19;20274;-78
2023/08/31 08:00:18;;;;;;;12.55;3.00;;;27.90;99.90;;;;;;7288091;19;20190;-78
2023/08/31 08:02:45;;;;;;;10.48;2.80;;;28.70;99.90;;;;;;7288317;19;20180;-77
2023/08/31 08:05:11;;;;;;;10.27;2.47;;;28.90;99.90;;;;;;7284301;19;20207;-77
2023/08/31 08:07:37;;;;;;;11.77;2.65;;;28.70;99.90;;;;;;7296332;19;20200;-77
2023/08/31 08:10:03;;;;;;;9.38;2.80;;;28.40;99.90;;;;;;7303314;19;20225;-77
2023/08/31 08:12:39;;;;;;;10.93;2.90;;;28.00;99.90;;;;;;7285339;19;20611;-77
2023/08/31 08:15:09;;;;;;;11.68;3.20;;;27.80;99.90;;;;;;7283971;19;20231;-78
2023/08/31 08:17:35;;;;;;;11.35;2.80;;;28.10;99.90;;;;;;7285583;19;20224;-78
2023/08/31 08:20:03;;;;;;;10.95;3.10;;;28.70;99.90;;;;;;7288781;19;20200;-78
2023/08/31 08:22:29;;;;;;;13.32;2.97;;;29.10;99.90;;;;;;7287020;19;20239;-79
2023/08/31 08:24:55;;;;;;;9.65;2.45;;;30.30;99.90;;;;;;7284865;19;20627;-78
2023/08/31 08:27:22;;;;;;;9.65;2.55;;;30.50;98.80;;;;;;7287045;19;20566;-77
2023/08/31 08:29:48;;;;;;;11.43;2.83;;;29.70;99.90;;;;;;7284832;19;20185;-77
2023/08/31 08:32:13;;;;;;;10.27;3.20;;;30.10;98.70;;;;;;7284624;19;20222;-78
2023/08/31 08:34:39;;;;;;;11.20;2.95;;;29.10;99.90;;;;;;7285980;19;20200;-78
2023/08/31 08:37:05;;;;;;;13.38;3.20;;;29.30;99.90;;;;;;7307177;19;20185;-78
2023/08/31 08:39:31;;;;;;;13.27;3.25;;;28.30;99.90;;;;;;7283952;19;20292;-77
2023/08/31 08:41:58;;;;;;;12.25;2.85;;;28.20;99.90;;;;;;7284362;19;20658;-78
2023/08/31 08:44:26;;;;;;;12.70;3.10;;;27.90;99.90;;;;;;7284055;19;20685;-78
2023/08/31 08:46:52;;;;;;;11.77;2.90;;;28.90;99.90;;;;;;7284371;19;20201;-78
2023/08/31 08:49:19;;;;;;;11.50;2.92;;;30.30;99.90;;;;;;7283790;19;20184;-78
2023/08/31 08:51:48;;;;;;;7.88;2.67;;;31.10;99.20;;;;;;7285924;19;20196;-78
2023/08/31 08:54:14;;;;;;;9.02;2.70;;;31.30;98.50;;;;;;7286261;19;20188;-79
2023/08/31 08:56:39;;;;;;;13.85;3.00;;;32.30;95.90;;;;;;7286520;19;20189;-79
2023/08/31 08:59:05;;;;;;;11.05;2.67;;;33.40;94.20;;;;;;7308126;19;20545;-79
2023/08/31 09:01:34;;;;;;;11.48;2.80;;;34.30;92.60;;;;;;7285866;19;20957;-79
2023/08/31 09:04:00;;;;;;;10.77;3.00;;;33.30;89.60;;;;;;7285354;19;20223;-78
2023/08/31 09:06:28;;;;;;;9.98;2.72;;;32.40;91.60;;;;;;7286181;19;20194;-79
2023/08/31 09:08:57;;;;;;;12.57;2.97;;;31.20;92.00;;;;;;7286602;19;20225;-79
2023/08/31 09:11:23;;;;;;;7.47;2.55;;;30.10;94.20;;;;;;7285248;19;20189;-79
2023/08/31 09:13:50;;;;;;;11.10;2.70;;;29.20;95.80;;;;;;7285694;19;20193;-80
2023/08/31 09:16:29;;;;;;;11.15;2.45;;;29.10;96.10;;;;;;7286199;19;20185;-78
2023/08/31 09:18:58;;;;;;;10.27;3.05;;;29.00;97.70;;;;;;7287587;19;20197;-78
2023/08/31 09:21:37;;;;;;;11.05;2.95;;;29.00;97.80;;;;;;7290682;19;20189;-79
2023/08/31 09:24:07;;;;;;;9.82;2.83;;;29.70;98.00;;;;;;7287879;19;20672;-78
2023/08/31 09:26:48;;;;;;;10.98;2.65;;;29.90;97.10;;;;;;7287861;19;20220;-79
2023/08/31 09:29:14;;;;;;;10.60;2.50;;;31.00;96.30;;;;;;7182490;19;2004651;-80
2023/08/31 09:31:46;;;;;;;8.75;2.53;;;31.40;95.00;;;;;;7284862;19;20189;-77
2023/08/31 09:34:14;;;;;;;7.80;2.28;;;31.50;94.20;;;;;;7286300;19;20308;-80
2023/08/31 09:36:40;;;;;;;9.43;2.35;;;31.80;94.10;;;;;;7285055;19;20210;-79
2023/08/31 09:39:07;;;;;;;10.70;2.20;;;32.00;92.30;;;;;;7309442;19;20184;-79
2023/08/31 09:41:36;;;;;;;12.55;2.53;;;32.10;93.40;;;;;;7287456;19;20181;-78
2023/08/31 09:44:19;;;;;;;9.68;1.92;;;31.30;92.60;;;;;;7285919;19;20193;-80
2023/08/31 09:46:45;;;;;;;7.82;2.10;;;31.10;93.80;;;;;;7182594;19;2006054;-79
2023/08/31 09:49:15;;;;;;;8.07;2.33;;;31.20;93.70;;;;;;7284101;19;20189;-79
2023/08/31 09:51:46;;;;;;;7.53;1.92;;;31.80;93.40;;;;;;7280233;19;20184;-78
2023/08/31 09:54:15;;;;;;;6.35;2.40;;;32.40;91.70;;;;;;7284482;19;20192;-79
2023/08/31 09:56:46;;;;;;;8.32;1.95;;;32.20;91.30;;;;;;7282918;19;20289;-80
2023/08/31 09:59:14;;;;;;;12.57;2.22;;;32.30;91.00;;;;;;7284575;19;20575;-79
2023/08/31 10:01:45;;;;;;;11.38;2.53;;;31.40;92.30;;;;;;7283667;19;20192;-80
2023/08/31 10:04:12;;;;;;;8.80;2.22;;;30.90;92.80;;;;;;7283342;19;20196;-81
2023/08/31 10:06:42;;;;;;;10.02;2.30;;;30.70;93.10;;;;;;7289765;19;20235;-78
2023/08/31 10:09:12;;;;;;;11.70;2.05;;;31.50;93.20;;;;;;7284383;19;20197;-79
2023/08/31 10:11:42;;;;;;;11.55;2.50;;;31.00;91.70;;;;;;7291205;19;20200;-79
2023/08/31 10:14:10;;;;;;;9.20;2.10;;;31.00;93.50;;;;;;7288835;19;20181;-78
2023/08/31 10:16:39;;;;;;;6.63;1.90;;;31.80;93.70;;;;;;7306070;19;20203;-80
2023/08/31 10:19:05;;;;;;;9.02;2.28;;;30.90;94.20;;;;;;7285307;19;20181;-79
2023/08/31 10:21:33;;;;;;;11.25;2.55;;;29.40;94.60;;;;;;7283884;19;20524;-80
2023/08/31 10:23:59;;;;;;;48.42;33.78;;;29.30;94.40;;;;;;7281575;19;20204;-80
2023/08/31 10:26:31;;;;;;;10.32;2.47;;;28.50;95.60;;;;;;7283828;19;20189;-79
2023/08/31 10:28:58;;;;;;;10.38;2.35;;;26.80;97.80;;;;;;7282819;19;20189;-79
2023/08/31 10:31:32;;;;;;;10.98;2.35;;;26.50;99.90;;;;;;7281976;19;20189;-79
2023/08/31 10:33:58;;;;;;;10.73;2.50;;;26.90;99.90;;;;;;7284912;19;20189;-79
2023/08/31 10:36:41;;;;;;;9.90;2.70;;;27.20;99.90;;;;;;7282163;19;20189;-79
2023/08/31 10:39:13;;;;;;;8.90;2.20;;;27.80;99.10;;;;;;7281636;19;20203;-77
2023/08/31 10:41:39;;;;;;;9.40;2.35;;;27.50;98.20;;;;;;7284696;19;20857;-79
2023/08/31 10:44:19;;;;;;;8.70;2.15;;;27.10;99.90;;;;;;7304692;19;20181;-79
2023/08/31 10:46:45;;;;;;;9.85;2.50;;;26.50;99.90;;;;;;7179043;19;2004736;-79
2023/08/31 10:49:11;;;;;;;10.77;2.22;;;25.90;99.90;;;;;;7279738;19;24460;-79
2023/08/31 10:51:39;;;;;;;7.10;1.60;;;25.60;99.90;;;;;;7302692;19;20188;-78
2023/08/31 10:54:06;;;;;;;7.65;1.65;;;26.40;99.90;;;;;;7306461;19;20213;-79
2023/08/31 10:56:31;;;;;;;5.93;1.65;;;26.80;99.60;;;;;;7282646;19;20185;-79
2023/08/31 10:59:01;;;;;;;7.38;1.98;;;27.70;99.70;;;;;;7282496;19;20229;-79
2023/08/31 11:01:56;;;;;;;9.25;1.88;;;28.60;99.10;;;;;;7281915;19;20198;-79
2023/08/31 11:04:43;;;;;;;9.18;1.83;;;28.30;97.30;;;;;;7176630;19;2004765;-79
2023/08/31 11:07:19;;;;;;;7.55;2.00;;;27.90;97.80;;;;;;7263235;19;20671;-78
2023/08/31 11:09:46;;;;;;;11.10;2.03;;;27.30;97.50;;;;;;7283148;19;20192;-79
2023/08/31 11:12:12;;;;;;;8.02;1.90;;;27.00;97.10;;;;;;7282049;19;20296;-79
2023/08/31 11:14:38;;;;;;;7.93;1.85;;;27.20;99.40;;;;;;7289241;19;20177;-79
2023/08/31 11:17:05;;;;;;;7.82;2.15;;;27.50;97.30;;;;;;7303296;19;20305;-79
2023/08/31 11:19:32;;;;;;;6.38;1.48;;;27.30;96.70;;;;;;7281642;19;20194;-79
2023/08/31 11:22:02;;;;;;;7.30;1.77;;;27.40;99.40;;;;;;7283184;19;20185;-80
2023/08/31 11:24:30;;;;;;;11.05;1.95;;;27.20;97.50;;;;;;7282143;19;20594;-80
2023/08/31 11:26:55;;;;;;;8.52;2.50;;;27.20;99.00;;;;;;7290387;19;20181;-79
2023/08/31 11:29:21;;;;;;;10.20;2.30;;;27.00;97.50;;;;;;7289296;19;20260;-80
2023/08/31 11:31:47;;;;;;;9.00;2.30;;;26.50;99.00;;;;;;7287189;19;20185;-79
2023/08/31 11:34:17;;;;;;;8.43;2.28;;;26.70;99.40;;;;;;7289058;19;20656;-79
2023/08/31 11:36:44;;;;;;;8.50;2.08;;;27.10;98.80;;;;;;7287761;19;20224;-78
2023/08/31 11:39:10;;;;;;;11.05;1.83;;;26.90;99.90;;;;;;7287926;19;20546;-78
2023/08/31 11:41:41;;;;;;;7.82;2.00;;;26.80;99.90;;;;;;7309775;19;20256;-79
2023/08/31 11:44:09;;;;;;;9.68;2.03;;;26.60;99.60;;;;;;7287736;19;20209;-79
2023/08/31 11:46:36;;;;;;;7.40;1.92;;;26.50;99.90;;;;;;7290286;19;20597;-79
2023/08/31 11:49:06;;;;;;;8.40;1.95;;;26.60;99.20;;;;;;7289952;19;20297;-78
2023/08/31 11:51:36;;;;;;;8.90;2.08;;;27.10;99.90;;;;;;7288985;19;20188;-79
2023/08/31 11:54:02;;;;;;;10.57;2.03;;;27.20;99.40;;;;;;7288125;19;20213;-79
2023/08/31 11:56:39;;;;;;;6.22;1.80;;;27.20;98.80;;;;;;7288100;19;20182;-78
2023/08/31 11:59:09;;;;;;;7.65;2.08;;;27.50;99.60;;;;;;7290039;19;20256;-79
2023/08/31 12:01:42;;;;;;;9.88;2.00;;;26.90;98.10;;;;;;7287053;19;20205;-81
2023/08/31 12:04:25;;;;;;;11.05;1.92;;;26.90;98.50;;;;;;7282209;19;20575;-80
2023/08/31 12:06:52;;;;;;;6.00;1.70;;;26.90;99.90;;;;;;7288587;19;20526;-80
2023/08/31 12:09:18;;;;;;;6.20;1.50;;;26.90;99.80;;;;;;7287783;19;20188;-80
2023/08/31 12:11:53;;;;;;;8.27;1.70;;;26.90;98.90;;;;;;7287966;19;20225;-80
2023/08/31 12:14:21;;;;;;;7.50;1.80;;;26.80;99.10;;;;;;7285441;19;20192;-79
2023/08/31 12:16:47;;;;;;;6.80;1.70;;;26.80;98.80;;;;;;7285255;19;20193;-79
2023/08/31 12:19:13;;;;;;;9.88;1.80;;;26.30;95.90;;;;;;7287351;19;20273;-78
2023/08/31 12:21:41;;;;;;;5.83;1.30;;;25.90;97.60;;;;;;7282302;19;20985;-76
2023/08/31 12:24:07;;;;;;;7.47;1.80;;;25.50;98.10;;;;;;7302878;19;20225;-77
2023/08/31 12:26:35;;;;;;;6.40;1.40;;;25.30;98.00;;;;;;7298325;19;20208;-76
2023/08/31 12:29:01;;;;;;;9.47;1.67;;;25.20;99.10;;;;;;7284446;19;20206;-77
2023/08/31 12:31:26;;;;;;;5.27;1.60;;;25.20;98.00;;;;;;7283460;19;20215;-78
2023/08/31 12:33:52;;;;;;;6.63;1.50;;;24.90;97.70;;;;;;7283532;19;20189;-76
2023/08/31 12:36:18;;;;;;;7.07;1.67;;;24.70;98.60;;;;;;7281930;19;20691;-79
2023/08/31 12:38:44;;;;;;;5.63;1.80;;;24.80;99.20;;;;;;7286579;19;20193;-79
2023/08/31 12:41:09;;;;;;;4.97;1.40;;;24.70;97.40;;;;;;7285908;19;20196;-79
2023/08/31 12:43:35;;;;;;;8.77;1.70;;;24.80;99.50;;;;;;7304894;19;20227;-77